createdAt,value
2023-04-18T00:01:23.940Z,7.84
2023-04-18T00:03:51.242Z,7.86
2023-04-18T00:06:18.359Z,7.71
2023-04-18T00:08:44.942Z,7.69
2023-04-18T00:11:11.567Z,7.77
2023-04-18T00:13:39.649Z,7.65
2023-04-18T00:16:08.066Z,7.67
2023-04-18T00:18:36.979Z,7.67
2023-04-18T00:21:04.672Z,7.36
2023-04-18T00:23:31.380Z,7.39
2023-04-18T00:25:57.987Z,7.58
2023-04-18T00:28:25.456Z,7.42
2023-04-18T00:30:52.120Z,7.41
2023-04-18T00:33:18.844Z,7.32
2023-04-18T00:35:45.642Z,7.25
2023-04-18T00:38:12.163Z,7.47
2023-04-18T00:40:41.154Z,7.50
2023-04-18T00:43:08.592Z,7.43
2023-04-18T00:45:35.517Z,7.36
2023-04-18T00:48:02.257Z,7.35
2023-04-18T00:50:29.051Z,7.18
2023-04-18T00:52:56.381Z,7.33
2023-04-18T00:55:24.266Z,7.33
2023-04-18T00:57:52.106Z,7.33
2023-04-18T01:00:18.897Z,7.16
2023-04-18T01:02:47.068Z,7.28
2023-04-18T01:05:13.994Z,7.19
2023-04-18T01:07:41.679Z,7.16
2023-04-18T01:10:10.298Z,7.18
2023-04-18T01:12:37.778Z,7.18
2023-04-18T01:15:08.214Z,7.13
2023-04-18T01:17:35.675Z,7.11
2023-04-18T01:20:05.589Z,7.17
2023-04-18T01:22:33.231Z,6.80
2023-04-18T01:25:00.018Z,6.87
2023-04-18T01:27:26.798Z,7.02
2023-04-18T01:29:53.579Z,6.95
2023-04-18T01:32:20.668Z,6.91
2023-04-18T01:34:47.817Z,6.98
2023-04-18T01:37:14.767Z,6.93
2023-04-18T01:39:41.661Z,6.97
2023-04-18T01:42:08.625Z,6.90
2023-04-18T01:44:35.392Z,6.98
2023-04-18T01:47:02.051Z,7.01
2023-04-18T01:49:29.025Z,6.95
2023-04-18T01:51:55.648Z,6.96
2023-04-18T01:54:22.271Z,6.97
2023-04-18T01:56:49.004Z,6.95
2023-04-18T01:59:15.638Z,6.85
2023-04-18T02:01:42.510Z,6.91
2023-04-18T02:04:09.242Z,6.99
2023-04-18T02:06:36.014Z,7.09
2023-04-18T02:09:02.701Z,6.97
2023-04-18T02:11:30.132Z,6.84
2023-04-18T02:13:56.725Z,7.03
2023-04-18T02:16:23.399Z,7.13
2023-04-18T02:18:52.936Z,7.14
2023-04-18T02:21:19.528Z,7.07
2023-04-18T02:23:46.152Z,7.08
2023-04-18T02:26:13.117Z,7.12
2023-04-18T02:28:39.894Z,7.16
2023-04-18T02:31:07.376Z,7.15
2023-04-18T02:33:34.153Z,7.06
2023-04-18T02:36:01.839Z,7.01
2023-04-18T02:38:28.460Z,7.14
2023-04-18T02:40:56.164Z,7.13
2023-04-18T02:43:22.849Z,7.21
2023-04-18T02:45:49.543Z,7.26
2023-04-18T02:48:16.354Z,7.13
2023-04-18T02:50:42.962Z,7.23
2023-04-18T02:53:09.545Z,7.18
2023-04-18T02:55:37.215Z,7.19
2023-04-18T02:58:03.816Z,7.22
2023-04-18T03:00:30.553Z,7.29
2023-04-18T03:02:57.627Z,7.07
2023-04-18T03:05:24.755Z,7.29
2023-04-18T03:07:51.472Z,7.23
2023-04-18T03:10:18.427Z,7.30
2023-04-18T03:12:45.007Z,7.20
2023-04-18T03:15:11.832Z,7.27
2023-04-18T03:17:39.443Z,7.15
2023-04-18T03:20:08.149Z,7.24
2023-04-18T03:22:35.159Z,7.11
2023-04-18T03:25:02.155Z,7.31
2023-04-18T03:27:28.790Z,7.32
2023-04-18T03:29:55.510Z,7.30
2023-04-18T03:32:22.433Z,7.17
2023-04-18T03:34:49.458Z,7.19
2023-04-18T03:37:16.039Z,7.28
2023-04-18T03:39:42.833Z,7.25
2023-04-18T03:42:09.438Z,7.28
2023-04-18T03:44:36.081Z,7.26
2023-04-18T03:47:03.031Z,7.18
2023-04-18T03:49:29.626Z,7.26
2023-04-18T03:51:56.226Z,7.27
2023-04-18T03:54:22.978Z,7.11
2023-04-18T03:56:49.643Z,7.34
2023-04-18T03:59:16.379Z,7.32
2023-04-18T04:01:43.216Z,7.26
2023-04-18T04:04:12.089Z,6.95
2023-04-18T04:06:39.107Z,7.32
2023-04-18T04:09:06.580Z,7.14
2023-04-18T04:11:36.242Z,7.35
2023-04-18T04:14:02.939Z,7.42
2023-04-18T04:16:29.973Z,7.38
2023-04-18T04:18:56.657Z,7.29
2023-04-18T04:21:23.295Z,7.39
2023-04-18T04:23:50.065Z,7.39
2023-04-18T04:26:16.751Z,7.19
2023-04-18T04:28:46.370Z,7.35
2023-04-18T04:31:13.222Z,7.41
2023-04-18T04:33:41.021Z,7.30
2023-04-18T04:36:08.988Z,7.45
2023-04-18T04:38:38.564Z,7.46
2023-04-18T04:41:08.048Z,7.39
2023-04-18T04:43:34.925Z,7.44
2023-04-18T04:46:03.884Z,7.42
2023-04-18T04:48:30.595Z,7.33
2023-04-18T04:50:59.152Z,7.48
2023-04-18T04:53:28.866Z,7.45
2023-04-18T04:55:55.698Z,7.37
2023-04-18T04:58:22.327Z,7.34
2023-04-18T05:00:50.914Z,7.28
2023-04-18T05:03:18.057Z,7.38
2023-04-18T05:05:45.301Z,7.23
2023-04-18T05:08:12.179Z,7.30
2023-04-18T05:10:38.867Z,7.17
2023-04-18T05:13:05.462Z,7.33
2023-04-18T05:15:32.557Z,7.34
2023-04-18T05:17:59.464Z,7.39
2023-04-18T05:20:26.134Z,7.34
2023-04-18T05:22:52.939Z,7.27
2023-04-18T05:25:19.872Z,7.31
2023-04-18T05:27:47.185Z,7.39
2023-04-18T05:30:14.284Z,7.33
2023-04-18T05:32:41.026Z,7.17
2023-04-18T05:35:08.373Z,7.24
2023-04-18T05:37:35.508Z,7.52
2023-04-18T05:40:02.819Z,7.33
2023-04-18T05:42:29.405Z,7.41
2023-04-18T05:44:56.294Z,7.53
2023-04-18T05:47:24.202Z,7.48
2023-04-18T05:49:51.071Z,7.38
2023-04-18T05:52:17.962Z,7.44
2023-04-18T05:54:44.582Z,7.48
2023-04-18T05:57:11.166Z,7.68
2023-04-18T05:59:38.035Z,7.49
2023-04-18T06:02:04.713Z,7.69
2023-04-18T06:04:31.475Z,7.73
2023-04-18T06:06:58.861Z,7.78
2023-04-18T06:09:25.423Z,7.94
2023-04-18T06:11:52.069Z,7.73
2023-04-18T06:14:18.776Z,7.84
2023-04-18T06:16:45.898Z,7.92
2023-04-18T06:19:12.504Z,8.19
2023-04-18T06:21:42.130Z,8.23
2023-04-18T06:24:09.350Z,8.39
2023-04-18T06:26:36.010Z,8.49
2023-04-18T06:29:03.319Z,8.31
2023-04-18T06:31:30.051Z,8.48
2023-04-18T06:33:56.717Z,8.41
2023-04-18T06:36:23.737Z,8.27
2023-04-18T06:38:50.371Z,8.33
2023-04-18T06:41:17.076Z,8.13
2023-04-18T06:43:59.738Z,8.42
2023-04-18T06:46:30.555Z,8.80
2023-04-18T06:48:57.520Z,9.19
2023-04-18T06:51:24.193Z,9.58
2023-04-18T06:53:52.968Z,10.51
2023-04-18T06:56:20.722Z,11.46
2023-04-18T06:58:48.036Z,12.56
2023-04-18T07:01:14.744Z,13.67
2023-04-18T07:03:42.269Z,14.06
2023-04-18T07:06:10.552Z,14.28
2023-04-18T07:08:37.820Z,14.79
2023-04-18T07:11:05.664Z,14.97
2023-04-18T07:13:32.251Z,15.27
2023-04-18T07:15:58.924Z,15.66
2023-04-18T07:18:36.552Z,16.11
2023-04-18T07:21:07.534Z,16.15
2023-04-18T07:23:35.060Z,15.82
2023-04-18T07:26:02.847Z,15.85
2023-04-18T07:28:31.279Z,15.21
2023-04-18T07:30:58.858Z,14.75
2023-04-18T07:33:25.803Z,14.40
2023-04-18T07:35:53.217Z,14.02
2023-04-18T07:38:20.322Z,13.32
2023-04-18T07:40:47.088Z,12.83
2023-04-18T07:43:13.758Z,12.58
2023-04-18T07:45:43.334Z,12.62
2023-04-18T07:48:11.336Z,12.63
2023-04-18T07:50:38.069Z,12.40
2023-04-18T07:53:04.889Z,12.49
2023-04-18T07:55:31.842Z,12.80
2023-04-18T07:57:58.546Z,12.80
2023-04-18T08:00:25.392Z,12.99
2023-04-18T08:02:52.265Z,13.27
2023-04-18T08:05:20.065Z,13.64
2023-04-18T08:07:46.916Z,13.93
2023-04-18T08:10:13.584Z,14.25
2023-04-18T08:12:40.702Z,14.28
2023-04-18T08:15:08.527Z,14.57
2023-04-18T08:17:35.327Z,14.47
2023-04-18T08:20:05.130Z,14.26
2023-04-18T08:22:33.590Z,13.86
2023-04-18T08:25:05.420Z,13.28
2023-04-18T08:27:32.928Z,12.99
2023-04-18T08:30:00.822Z,12.50
2023-04-18T08:32:27.731Z,12.20
2023-04-18T08:34:54.410Z,12.11
2023-04-18T08:37:21.342Z,11.95
2023-04-18T08:39:48.070Z,11.59
2023-04-18T08:42:21.563Z,11.74
2023-04-18T08:44:49.242Z,11.72
2023-04-18T08:47:16.439Z,11.51
2023-04-18T08:49:46.689Z,11.56
2023-04-18T08:52:17.169Z,11.59
2023-04-18T08:54:46.703Z,11.68
2023-04-18T08:57:18.422Z,11.68
2023-04-18T08:59:47.678Z,11.61
2023-04-18T09:02:16.266Z,11.57
2023-04-18T09:04:45.386Z,11.63
2023-04-18T09:07:14.571Z,11.63
2023-04-18T09:09:52.674Z,11.58
2023-04-18T09:12:25.376Z,11.77
2023-04-18T09:14:57.997Z,11.80
2023-04-18T09:17:36.926Z,11.59
2023-04-18T09:20:05.610Z,11.79
2023-04-18T09:22:52.793Z,11.81
2023-04-18T09:25:29.520Z,11.75
2023-04-18T09:28:02.026Z,11.60
2023-04-18T09:30:34.908Z,11.80
2023-04-18T09:33:06.261Z,11.67
2023-04-18T09:35:33.559Z,11.96
2023-04-18T09:38:00.295Z,11.97
2023-04-18T09:40:27.369Z,11.91
2023-04-18T09:42:57.037Z,12.09
2023-04-18T09:45:25.289Z,12.22
2023-04-18T09:47:53.761Z,12.21
2023-04-18T09:50:20.921Z,12.06
2023-04-18T09:52:48.623Z,12.17
2023-04-18T09:55:18.482Z,12.01
2023-04-18T09:57:47.964Z,12.42
2023-04-18T10:00:24.886Z,12.49
2023-04-18T10:03:08.301Z,12.43
2023-04-18T10:05:38.917Z,12.38
2023-04-18T10:08:06.842Z,12.39
2023-04-18T10:10:33.591Z,12.38
2023-04-18T10:13:03.174Z,12.44
2023-04-18T10:15:31.277Z,12.51
2023-04-18T10:18:05.641Z,12.44
2023-04-18T10:20:35.181Z,12.48
2023-04-18T10:23:30.911Z,12.59
2023-04-18T10:25:58.283Z,12.43
2023-04-18T10:28:26.523Z,12.61
2023-04-18T10:30:54.677Z,12.62
2023-04-18T10:33:30.445Z,12.47
2023-04-18T10:36:12.310Z,12.70
2023-04-18T10:38:50.956Z,12.50
2023-04-18T10:41:29.191Z,12.69
2023-04-18T10:44:08.724Z,12.75
2023-04-18T10:46:36.917Z,12.72
2023-04-18T10:49:31.031Z,12.72
2023-04-18T10:52:00.999Z,12.59
2023-04-18T10:54:59.248Z,12.78
2023-04-18T10:57:37.870Z,12.96
2023-04-18T11:00:06.219Z,12.86
2023-04-18T11:02:33.516Z,13.00
2023-04-18T11:05:04.829Z,12.77
2023-04-18T11:07:37.671Z,13.05
2023-04-18T11:10:06.182Z,12.88
2023-04-18T11:12:36.436Z,12.98
2023-04-18T11:15:09.567Z,13.02
2023-04-18T11:17:38.407Z,13.06
2023-04-18T11:20:13.042Z,13.08
2023-04-18T11:22:51.199Z,13.05
2023-04-18T11:25:19.882Z,13.16
2023-04-18T11:27:48.769Z,13.24
2023-04-18T11:30:16.214Z,12.75
2023-04-18T11:32:43.213Z,13.09
2023-04-18T11:35:11.652Z,13.12
2023-04-18T11:37:39.655Z,13.14
2023-04-18T11:40:08.980Z,12.96
2023-04-18T11:42:38.888Z,13.16
2023-04-18T11:45:16.161Z,13.04
2023-04-18T11:47:43.441Z,13.36
2023-04-18T11:50:12.731Z,13.40
2023-04-18T11:52:42.241Z,13.49
2023-04-18T11:55:14.409Z,13.45
2023-04-18T11:57:41.916Z,13.70
2023-04-18T12:00:10.541Z,13.68
2023-04-18T12:02:43.287Z,13.76
2023-04-18T12:05:12.151Z,13.47
2023-04-18T12:07:45.219Z,13.77
2023-04-18T12:10:21.150Z,13.85
2023-04-18T12:12:49.368Z,13.81
2023-04-18T12:15:17.629Z,13.70
2023-04-18T12:17:54.509Z,13.59
2023-04-18T12:20:24.854Z,13.65
2023-04-18T12:22:53.109Z,13.61
2023-04-18T12:25:27.399Z,13.68
2023-04-18T12:27:59.365Z,13.80
2023-04-18T12:30:29.356Z,13.86
2023-04-18T12:32:58.109Z,13.70
2023-04-18T12:35:25.662Z,13.79
2023-04-18T12:37:55.274Z,13.81
2023-04-18T12:40:23.257Z,13.72
2023-04-18T12:42:51.533Z,13.83
2023-04-18T12:45:19.594Z,13.96
2023-04-18T12:47:48.330Z,14.02
2023-04-18T12:50:21.521Z,14.01
2023-04-18T12:52:48.826Z,13.99
2023-04-18T12:55:15.805Z,14.29
2023-04-18T12:57:44.259Z,14.17
2023-04-18T13:00:13.051Z,14.03
2023-04-18T13:02:41.875Z,14.19
2023-04-18T13:05:10.736Z,13.72
2023-04-18T13:07:40.492Z,14.11
2023-04-18T13:10:09.014Z,14.08
2023-04-18T13:12:36.280Z,13.77
2023-04-18T13:15:04.286Z,14.02
2023-04-18T13:17:31.134Z,14.18
2023-04-18T13:19:58.247Z,14.21
2023-04-18T13:22:24.973Z,13.92
2023-04-18T13:24:51.661Z,14.12
2023-04-18T13:27:18.728Z,14.05
2023-04-18T13:29:47.707Z,13.90
2023-04-18T13:32:14.404Z,13.80
2023-04-18T13:34:46.530Z,13.92
2023-04-18T13:37:14.443Z,13.69
2023-04-18T13:39:41.386Z,13.81
2023-04-18T13:42:09.018Z,13.82
2023-04-18T13:44:37.316Z,13.72
2023-04-18T13:47:05.542Z,13.69
2023-04-18T13:49:33.878Z,13.35
2023-04-18T13:52:01.049Z,13.48
2023-04-18T13:54:29.796Z,13.49
2023-04-18T13:57:04.644Z,13.47
2023-04-18T13:59:32.554Z,13.44
2023-04-18T14:01:59.748Z,13.46
2023-04-18T14:04:27.653Z,13.49
2023-04-18T14:06:54.958Z,13.50
2023-04-18T14:09:21.755Z,13.71
2023-04-18T14:11:48.856Z,13.56
2023-04-18T14:14:15.588Z,13.53
2023-04-18T14:16:42.249Z,13.53
2023-04-18T14:19:09.020Z,13.55
2023-04-18T14:21:36.057Z,13.42
2023-04-18T14:24:03.489Z,13.45
2023-04-18T14:26:31.158Z,13.37
2023-04-18T14:28:58.193Z,13.30
2023-04-18T14:31:24.925Z,13.48
2023-04-18T14:33:52.270Z,13.51
2023-04-18T14:36:19.434Z,13.47
2023-04-18T14:38:49.583Z,13.51
2023-04-18T14:41:16.936Z,13.56
2023-04-18T14:43:43.862Z,13.50
2023-04-18T14:46:16.579Z,13.29
2023-04-18T14:48:47.487Z,13.17
2023-04-18T14:51:17.257Z,13.28
2023-04-18T14:53:44.967Z,13.33
2023-04-18T14:56:11.979Z,13.23
2023-04-18T14:58:38.618Z,13.21
2023-04-18T15:01:05.782Z,13.26
2023-04-18T15:03:33.534Z,13.20
2023-04-18T15:06:00.464Z,13.30
2023-04-18T15:08:27.297Z,13.33
2023-04-18T15:10:54.105Z,13.19
2023-04-18T15:13:20.869Z,13.21
2023-04-18T15:15:55.278Z,13.13
2023-04-18T15:18:22.082Z,13.04
2023-04-18T15:20:48.778Z,13.23
2023-04-18T15:23:16.043Z,13.34
2023-04-18T15:25:45.206Z,13.48
2023-04-18T15:28:14.677Z,13.45
2023-04-18T15:30:41.520Z,13.28
2023-04-18T15:33:08.571Z,13.30
2023-04-18T15:35:35.780Z,13.06
2023-04-18T15:38:02.584Z,13.06
2023-04-18T15:40:29.288Z,13.22
2023-04-18T15:42:57.791Z,13.12
2023-04-18T15:45:24.559Z,13.10
2023-04-18T15:47:51.717Z,13.12
2023-04-18T15:50:18.619Z,13.05
2023-04-18T15:52:46.163Z,13.03
2023-04-18T15:55:13.540Z,13.02
2023-04-18T15:57:41.678Z,13.11
2023-04-18T16:00:21.068Z,13.15
2023-04-18T16:02:48.095Z,13.02
2023-04-18T16:05:15.366Z,13.02
2023-04-18T16:07:43.282Z,13.06
2023-04-18T16:10:11.290Z,12.60
2023-04-18T16:12:39.081Z,12.91
2023-04-18T16:15:07.330Z,12.87
2023-04-18T16:17:34.531Z,12.62
2023-04-18T16:20:01.291Z,12.68
2023-04-18T16:22:28.159Z,12.82
2023-04-18T16:24:54.925Z,12.79
2023-04-18T16:27:21.989Z,12.68
2023-04-18T16:29:48.687Z,12.73
2023-04-18T16:32:15.655Z,12.40
2023-04-18T16:34:42.249Z,12.52
2023-04-18T16:37:09.029Z,12.32
2023-04-18T16:39:35.783Z,12.37
2023-04-18T16:42:03.807Z,12.44
2023-04-18T16:44:30.824Z,12.36
2023-04-18T16:46:57.615Z,12.32
2023-04-18T16:49:24.344Z,11.99
2023-04-18T16:51:51.348Z,12.00
2023-04-18T16:54:17.986Z,12.31
2023-04-18T16:56:44.865Z,12.19
2023-04-18T16:59:11.820Z,12.14
2023-04-18T17:01:38.796Z,12.20
2023-04-18T17:04:05.627Z,12.12
2023-04-18T17:06:32.946Z,12.19
2023-04-18T17:09:00.155Z,12.10
2023-04-18T17:11:26.840Z,12.03
2023-04-18T17:13:53.862Z,11.96
2023-04-18T17:16:20.689Z,11.96
2023-04-18T17:18:47.364Z,12.00
2023-04-18T17:21:14.330Z,11.90
2023-04-18T17:23:42.509Z,11.90
2023-04-18T17:26:10.009Z,11.89
2023-04-18T17:28:37.022Z,11.72
2023-04-18T17:31:03.955Z,11.80
2023-04-18T17:33:31.161Z,11.74
2023-04-18T17:35:58.361Z,11.79
2023-04-18T17:38:25.233Z,11.63
2023-04-18T17:40:59.660Z,11.66
2023-04-18T17:43:26.872Z,11.47
2023-04-18T17:45:53.742Z,11.45
2023-04-18T17:48:20.539Z,11.35
2023-04-18T17:50:47.338Z,11.38
2023-04-18T17:53:14.098Z,11.53
2023-04-18T17:55:41.227Z,11.47
2023-04-18T17:58:08.186Z,11.34
2023-04-18T18:00:35.142Z,11.30
2023-04-18T18:03:03.012Z,11.34
2023-04-18T18:05:30.442Z,11.18
2023-04-18T18:07:57.677Z,11.36
2023-04-18T18:10:25.083Z,11.21
2023-04-18T18:12:51.961Z,11.19
2023-04-18T18:15:19.496Z,11.12
2023-04-18T18:17:49.198Z,11.05
2023-04-18T18:20:16.267Z,10.85
2023-04-18T18:22:43.605Z,11.13
2023-04-18T18:25:10.860Z,11.04
2023-04-18T18:27:37.675Z,11.07
2023-04-18T18:30:04.886Z,10.89
2023-04-18T18:32:31.623Z,10.96
2023-04-18T18:34:58.409Z,10.90
2023-04-18T18:37:26.118Z,10.92
2023-04-18T18:39:59.981Z,10.83
2023-04-18T18:42:27.271Z,10.78
2023-04-18T18:44:54.711Z,10.86
2023-04-18T18:47:21.685Z,10.72
2023-04-18T18:49:48.838Z,10.59
2023-04-18T18:52:16.035Z,10.64
2023-04-18T18:54:42.803Z,10.64
2023-04-18T18:57:09.647Z,10.66
2023-04-18T18:59:36.275Z,10.23
2023-04-18T19:02:03.294Z,10.45
2023-04-18T19:04:30.443Z,10.51
2023-04-18T19:06:57.190Z,10.58
2023-04-18T19:09:24.227Z,10.49
2023-04-18T19:11:51.521Z,10.52
2023-04-18T19:14:18.132Z,10.39
2023-04-18T19:16:44.948Z,10.50
2023-04-18T19:19:12.052Z,10.40
2023-04-18T19:21:39.829Z,10.24
2023-04-18T19:24:07.554Z,10.25
2023-04-18T19:26:34.254Z,10.37
2023-04-18T19:29:00.999Z,10.38
2023-04-18T19:31:28.147Z,10.22
2023-04-18T19:33:55.066Z,10.08
2023-04-18T19:36:22.594Z,10.31
2023-04-18T19:38:49.355Z,10.25
2023-04-18T19:41:16.330Z,10.29
2023-04-18T19:43:43.273Z,10.21
2023-04-18T19:46:10.485Z,10.21
2023-04-18T19:48:38.111Z,10.20
2023-04-18T19:51:04.846Z,9.78
2023-04-18T19:53:31.825Z,10.12
2023-04-18T19:55:58.544Z,10.01
2023-04-18T19:58:35.970Z,10.08
2023-04-18T20:01:05.830Z,9.91
2023-04-18T20:03:35.375Z,10.04
2023-04-18T20:06:02.322Z,9.94
2023-04-18T20:08:29.479Z,9.79
2023-04-18T20:10:56.503Z,9.95
2023-04-18T20:13:23.751Z,9.91
2023-04-18T20:15:50.492Z,9.83
2023-04-18T20:18:17.276Z,9.78
2023-04-18T20:20:44.066Z,9.73
2023-04-18T20:23:11.371Z,9.70
2023-04-18T20:25:38.053Z,9.65
2023-04-18T20:28:05.007Z,9.71
2023-04-18T20:30:31.708Z,9.70
2023-04-18T20:32:58.484Z,9.70
2023-04-18T20:35:28.005Z,9.67
2023-04-18T20:37:55.087Z,9.62
2023-04-18T20:40:21.954Z,9.61
2023-04-18T20:42:48.662Z,9.61
2023-04-18T20:45:15.398Z,9.56
2023-04-18T20:47:42.395Z,9.61
2023-04-18T20:50:10.342Z,9.62
2023-04-18T20:52:37.705Z,9.52
2023-04-18T20:55:04.732Z,9.70
2023-04-18T20:57:31.422Z,9.72
2023-04-18T20:59:58.725Z,9.53
2023-04-18T21:02:26.466Z,9.64
2023-04-18T21:04:54.018Z,9.46
2023-04-18T21:07:21.063Z,9.49
2023-04-18T21:09:47.682Z,9.52
2023-04-18T21:12:14.326Z,9.56
2023-04-18T21:14:41.188Z,9.64
2023-04-18T21:17:09.660Z,9.19
2023-04-18T21:19:36.999Z,9.63
2023-04-18T21:22:04.361Z,9.61
2023-04-18T21:24:31.692Z,9.59
2023-04-18T21:26:58.777Z,9.54
2023-04-18T21:29:26.530Z,9.38
2023-04-18T21:31:53.720Z,9.57
2023-04-18T21:34:20.752Z,9.14
2023-04-18T21:36:47.658Z,9.48
2023-04-18T21:39:14.379Z,9.51
2023-04-18T21:41:42.021Z,9.42
2023-04-18T21:44:08.640Z,9.16
2023-04-18T21:46:35.245Z,9.31
2023-04-18T21:49:02.028Z,9.36
2023-04-18T21:51:28.762Z,9.14
2023-04-18T21:53:55.674Z,9.27
2023-04-18T21:56:22.428Z,9.32
2023-04-18T21:58:49.316Z,9.31
2023-04-18T22:01:16.047Z,9.24
2023-04-18T22:03:43.227Z,9.23
2023-04-18T22:06:10.451Z,9.23
2023-04-18T22:08:37.137Z,9.22
2023-04-18T22:13:39.184Z,9.20
2023-04-18T22:16:09.510Z,9.16
2023-04-18T22:18:37.868Z,9.04
2023-04-18T22:21:04.945Z,9.02
2023-04-18T22:23:31.696Z,9.03
2023-04-18T22:25:58.543Z,8.92
2023-04-18T22:28:27.944Z,8.97
2023-04-18T22:30:54.654Z,9.16
2023-04-18T22:33:21.287Z,9.18
2023-04-18T22:35:48.745Z,9.01
2023-04-18T22:38:15.852Z,9.06
2023-04-18T22:40:42.475Z,8.85
2023-04-18T22:43:09.172Z,8.62
2023-04-18T22:45:35.860Z,8.98
2023-04-18T22:48:02.498Z,8.59
2023-04-18T22:50:30.344Z,8.91
2023-04-18T22:52:57.453Z,9.01
2023-04-18T22:55:24.193Z,8.99
2023-04-18T22:57:51.066Z,8.85
2023-04-18T23:00:17.795Z,8.85
2023-04-18T23:02:44.565Z,8.91
2023-04-18T23:05:11.882Z,8.91
2023-04-18T23:07:38.567Z,8.39
2023-04-18T23:10:08.628Z,8.73
2023-04-18T23:12:35.458Z,8.66
2023-04-18T23:15:02.067Z,8.82
2023-04-18T23:17:28.728Z,8.81
2023-04-18T23:19:55.641Z,8.30
2023-04-18T23:22:24.139Z,8.61
2023-04-18T23:24:50.910Z,8.61
2023-04-18T23:27:19.628Z,8.68
2023-04-18T23:29:49.240Z,8.62
2023-04-18T23:32:16.389Z,8.68
2023-04-18T23:34:43.142Z,8.63
2023-04-18T23:37:09.771Z,8.47
2023-04-18T23:39:36.398Z,8.64
2023-04-18T23:42:03.249Z,8.65
2023-04-18T23:44:29.862Z,8.55
2023-04-18T23:46:56.483Z,8.54
2023-04-18T23:49:23.259Z,8.58
2023-04-18T23:51:49.910Z,8.60
2023-04-18T23:54:16.748Z,8.15
2023-04-18T23:56:43.653Z,8.53
2023-04-18T23:59:10.257Z,8.53
